createdAt,value
2023-03-05T00:03:58.812Z,3.26
2023-03-05T00:10:02.993Z,3.18
2023-03-05T00:16:08.086Z,3.20
2023-03-05T00:22:10.045Z,2.98
2023-03-05T00:28:12.845Z,2.67
2023-03-05T00:34:17.609Z,2.34
2023-03-05T00:40:20.010Z,2.59
2023-03-05T00:46:23.066Z,2.24
2023-03-05T00:52:25.101Z,2.42
2023-03-05T00:58:27.228Z,2.39
2023-03-05T01:04:29.191Z,2.47
2023-03-05T01:10:31.305Z,2.49
2023-03-05T01:16:33.338Z,2.59
2023-03-05T01:22:35.310Z,2.58
2023-03-05T01:28:38.322Z,2.73
2023-03-05T01:34:41.897Z,2.71
2023-03-05T01:40:44.447Z,2.59
2023-03-05T01:46:46.331Z,2.64
2023-03-05T01:52:55.271Z,2.53
2023-03-05T01:59:03.493Z,2.74
2023-03-05T02:05:16.060Z,2.55
2023-03-05T02:11:17.978Z,2.53
2023-03-05T02:17:20.111Z,2.53
2023-03-05T02:23:25.506Z,2.53
2023-03-05T02:29:29.383Z,2.63
2023-03-05T02:35:32.114Z,2.40
2023-03-05T02:41:34.102Z,2.51
2023-03-05T02:47:36.218Z,2.41
2023-03-05T02:53:38.137Z,2.41
2023-03-05T02:59:40.441Z,2.43
2023-03-05T03:05:42.349Z,2.43
2023-03-05T03:11:44.278Z,2.33
2023-03-05T03:17:46.565Z,2.36
2023-03-05T03:23:48.471Z,2.37
2023-03-05T03:29:50.459Z,2.47
2023-03-05T03:35:52.409Z,2.47
2023-03-05T03:41:54.368Z,2.55
2023-03-05T03:47:56.270Z,2.58
2023-03-05T03:53:58.616Z,2.60
2023-03-05T04:00:01.663Z,2.56
2023-03-05T04:06:04.545Z,2.52
2023-03-05T04:12:06.892Z,2.50
2023-03-05T04:18:10.359Z,2.48
2023-03-05T04:24:12.260Z,2.51
2023-03-05T04:30:15.060Z,2.58
2023-03-05T04:36:16.971Z,2.43
2023-03-05T04:42:20.134Z,2.42
2023-03-05T04:48:22.022Z,2.58
2023-03-05T04:54:24.994Z,2.63
2023-03-05T05:00:27.000Z,2.67
2023-03-05T05:06:28.953Z,2.61
2023-03-05T05:12:31.252Z,2.64
2023-03-05T05:18:33.167Z,2.59
2023-03-05T05:24:35.153Z,2.62
2023-03-05T05:30:37.226Z,2.63
2023-03-05T05:36:39.152Z,2.52
2023-03-05T05:42:41.069Z,2.58
2023-03-05T05:48:43.559Z,2.58
2023-03-05T05:54:45.504Z,2.48
2023-03-05T06:00:47.462Z,2.52
2023-03-05T06:06:49.457Z,2.54
2023-03-05T06:12:51.467Z,2.65
2023-03-05T06:18:54.052Z,2.69
2023-03-05T06:24:56.444Z,2.74
2023-03-05T06:31:01.462Z,2.63
2023-03-05T06:37:03.431Z,2.62
2023-03-05T06:43:05.305Z,2.74
2023-03-05T06:49:09.391Z,2.69
2023-03-05T06:55:11.525Z,2.88
2023-03-05T07:01:15.742Z,2.92
2023-03-05T07:07:17.679Z,3.03
2023-03-05T07:13:19.562Z,3.03
2023-03-05T07:19:21.447Z,3.33
2023-03-05T07:25:24.453Z,3.38
2023-03-05T07:31:31.181Z,3.42
2023-03-05T07:37:33.493Z,3.52
2023-03-05T07:43:35.738Z,3.53
2023-03-05T07:49:39.694Z,3.65
2023-03-05T07:55:48.222Z,3.89
2023-03-05T08:01:50.158Z,3.79
2023-03-05T08:07:52.487Z,3.62
2023-03-05T08:13:54.398Z,3.53
2023-03-05T08:19:59.583Z,3.56
2023-03-05T08:26:01.545Z,3.52
2023-03-05T08:32:03.843Z,3.23
2023-03-05T08:38:05.899Z,2.38
2023-03-05T08:44:08.056Z,2.08
2023-03-05T08:50:10.886Z,1.90
2023-03-05T08:56:14.179Z,1.77
2023-03-05T09:02:16.111Z,1.89
2023-03-05T09:08:19.186Z,2.09
2023-03-05T09:14:21.178Z,2.17
2023-03-05T09:20:23.121Z,2.44
2023-03-05T09:26:25.237Z,2.91
2023-03-05T09:32:27.193Z,3.39
2023-03-05T09:38:29.696Z,3.42
2023-03-05T09:44:47.870Z,3.63
2023-03-05T09:51:00.876Z,4.00
2023-03-05T09:57:05.632Z,4.83
2023-03-05T10:03:37.114Z,6.12
2023-03-05T10:09:59.096Z,5.77
2023-03-05T10:16:52.923Z,5.29
2023-03-05T10:23:24.804Z,5.82
2023-03-05T10:29:57.022Z,5.34
2023-03-05T10:36:45.856Z,4.81
2023-03-05T10:43:20.899Z,4.86
2023-03-05T10:49:36.784Z,5.03
2023-03-05T10:55:38.681Z,4.77
2023-03-05T11:01:40.833Z,4.78
2023-03-05T11:07:42.781Z,4.70
2023-03-05T11:13:58.819Z,4.58
2023-03-05T11:20:22.434Z,4.72
2023-03-05T11:26:24.411Z,5.19
2023-03-05T11:32:29.346Z,5.08
2023-03-05T11:38:31.766Z,5.07
2023-03-05T11:45:04.040Z,5.04
2023-03-05T11:51:20.076Z,5.04
2023-03-05T11:57:24.631Z,5.79
2023-03-05T12:03:35.824Z,5.81
2023-03-05T12:09:43.289Z,6.13
2023-03-05T12:16:26.191Z,6.10
2023-03-05T12:22:39.749Z,6.24
2023-03-05T12:28:41.797Z,6.07
2023-03-05T12:35:22.604Z,5.82
2023-03-05T12:41:26.262Z,7.58
2023-03-05T12:47:28.797Z,6.70
2023-03-05T12:53:30.703Z,7.59
2023-03-05T12:59:51.268Z,8.94
2023-03-05T13:06:06.584Z,9.61
2023-03-05T13:12:14.058Z,8.86
2023-03-05T13:18:24.795Z,7.50
2023-03-05T13:24:29.105Z,6.76
2023-03-05T13:30:33.037Z,6.06
2023-03-05T13:36:37.307Z,5.73
2023-03-05T13:42:40.044Z,5.76
2023-03-05T13:48:41.980Z,5.55
2023-03-05T13:54:44.046Z,5.47
2023-03-05T14:00:46.146Z,5.39
2023-03-05T14:07:07.596Z,5.39
2023-03-05T14:13:19.248Z,5.83
2023-03-05T14:19:37.128Z,6.43
2023-03-05T14:25:40.123Z,6.53
2023-03-05T14:32:08.031Z,7.56
2023-03-05T14:38:34.056Z,8.19
2023-03-05T14:44:35.962Z,7.31
2023-03-05T14:50:56.902Z,6.86
2023-03-05T14:56:59.153Z,6.66
2023-03-05T15:03:01.248Z,6.45
2023-03-05T15:09:05.817Z,6.07
2023-03-05T15:15:09.095Z,5.98
2023-03-05T15:21:11.166Z,6.10
2023-03-05T15:27:14.544Z,5.99
2023-03-05T15:33:17.567Z,5.85
2023-03-05T15:39:19.470Z,6.07
2023-03-05T15:45:21.630Z,6.06
2023-03-05T15:51:23.564Z,6.00
2023-03-05T15:57:26.393Z,6.13
2023-03-05T16:03:28.439Z,6.07
2023-03-05T16:09:37.062Z,5.81
2023-03-05T16:15:41.347Z,5.80
2023-03-05T16:21:43.421Z,5.68
2023-03-05T16:27:45.458Z,5.48
2023-03-05T16:33:48.044Z,5.44
2023-03-05T16:39:50.375Z,5.30
2023-03-05T16:45:52.278Z,5.21
2023-03-05T16:51:54.182Z,5.05
2023-03-05T16:57:56.054Z,5.02
2023-03-05T17:03:59.472Z,5.00
2023-03-05T17:10:01.477Z,4.78
2023-03-05T17:16:05.344Z,4.94
2023-03-05T17:22:07.313Z,4.81
2023-03-05T17:28:09.208Z,4.72
2023-03-05T17:34:11.221Z,4.90
2023-03-05T17:40:14.372Z,4.76
2023-03-05T17:46:17.042Z,4.72
2023-03-05T17:52:21.007Z,4.72
2023-03-05T17:58:23.156Z,4.61
2023-03-05T18:04:25.114Z,4.65
2023-03-05T18:10:28.590Z,4.49
2023-03-05T18:16:30.972Z,4.58
2023-03-05T18:22:33.227Z,4.67
2023-03-05T18:28:35.179Z,4.51
2023-03-05T18:34:37.192Z,4.64
2023-03-05T18:40:40.098Z,4.44
2023-03-05T18:46:42.068Z,4.50
2023-03-05T18:52:44.665Z,4.36
2023-03-05T18:58:47.620Z,4.35
2023-03-05T19:04:49.591Z,4.30
2023-03-05T19:10:51.714Z,4.07
2023-03-05T19:16:53.588Z,4.19
2023-03-05T19:22:55.784Z,4.06
2023-03-05T19:28:57.817Z,3.99
2023-03-05T19:34:59.884Z,4.02
2023-03-05T19:41:01.951Z,4.15
2023-03-05T19:47:04.127Z,3.83
2023-03-05T19:53:06.017Z,3.87
2023-03-05T19:59:08.751Z,3.81
2023-03-05T20:05:11.288Z,3.79
2023-03-05T20:11:15.641Z,3.82
2023-03-05T20:17:17.766Z,3.79
2023-03-05T20:23:20.936Z,4.02
2023-03-05T20:29:22.856Z,3.88
2023-03-05T20:35:24.827Z,3.97
2023-03-05T20:41:26.861Z,3.74
2023-03-05T20:47:40.536Z,3.83
2023-03-05T20:53:42.985Z,3.83
2023-03-05T20:59:44.898Z,3.77
2023-03-05T21:05:47.637Z,3.71
2023-03-05T21:11:50.034Z,3.54
2023-03-05T21:17:52.317Z,3.61
2023-03-05T21:23:54.251Z,3.65
2023-03-05T21:29:56.196Z,3.70
2023-03-05T21:35:58.142Z,3.74
2023-03-05T21:42:00.023Z,3.69
2023-03-05T21:48:01.906Z,3.71
2023-03-05T21:54:04.044Z,3.42
2023-03-05T22:00:09.856Z,3.68
2023-03-05T22:06:13.955Z,3.44
2023-03-05T22:12:22.962Z,3.39
2023-03-05T22:18:28.814Z,3.28
2023-03-05T22:24:30.742Z,3.14
2023-03-05T22:30:33.129Z,3.12
2023-03-05T22:36:35.389Z,3.00
2023-03-05T22:42:37.270Z,2.87
2023-03-05T22:48:39.178Z,2.91
2023-03-05T22:54:41.157Z,2.84
2023-03-05T23:00:43.036Z,2.87
2023-03-05T23:06:48.444Z,2.82
2023-03-05T23:12:53.490Z,2.84
2023-03-05T23:18:56.087Z,2.90
2023-03-05T23:24:57.985Z,2.92
2023-03-05T23:30:59.935Z,2.93
2023-03-05T23:37:01.866Z,2.85
2023-03-05T23:43:04.540Z,2.84
2023-03-05T23:49:06.485Z,2.77
2023-03-05T23:55:14.189Z,2.84
